Bowling Green, Florida
Current Conditions -  °F | °C
As of 7:55 PM on Monday 22 Dec 2014 (Local Time) from KBOW Reporting Station
Clear Clear  
Wind Chill: 72°   Ceiling: Unl
Heat Index: 72°   Visibility: 10mi
Dew Point: 70°   Wind: 6mph
Humidity: 94%   Direction: 200°SSW
Pressure: 29.96"   Gusts: NA
Location:  27.64°N, 81.82°W
Report Text: KBOW 230055Z AUTO 20005KT 10SM CLR 22/21 A2996 RMK AO2
Loading
Personal Weather Stations






























Interactive Weather Map New forecast layout! Learn more

10-Day Weather Forecast

Advertisements
Track Severe Weather on mobile